This is the latest recevied weather packets stored in our database for station/object F6BIJ-13. If no packets are shown the sender has not sent any weather packets the latest 10 day(s).
| Time | Temp. | Humidity | Pressure | Rain* | Wind** | Luminosity | Snow |
|---|---|---|---|---|---|---|---|
| 1778146597 | 17.78° C | 67% | 1015 hPa | 0 mm | - | - | - |
| 1778146236 | 17.22° C | 62% | 1014.9 hPa | 0 mm | - | - | - |
| 1778145877 | 17.78° C | 66% | 1014.9 hPa | 0 mm | - | - | - |
| 1778145517 | 16.67° C | 65% | 1014.7 hPa | 0 mm | - | - | - |
| 1778145157 | 17.22° C | 68% | 1014.8 hPa | 0 mm | - | - | - |
| 1778144797 | 16.67° C | 67% | 1014.9 hPa | 0 mm | - | - | - |
| 1778144437 | 16.67° C | 67% | 1014.9 hPa | 0 mm | - | - | - |
| 1778144077 | 16.67° C | 64% | 1014.8 hPa | 0 mm | - | - | - |
| 1778143717 | 17.78° C | 63% | 1014.9 hPa | 0 mm | - | - | - |
| 1778143356 | 19.44° C | 56% | 1014.8 hPa | 0 mm | - | - | - |
| 1778142997 | 17.78° C | 69% | 1014.8 hPa | 0 mm | - | - | - |
| 1778142637 | 16.67° C | 71% | 1014.8 hPa | 0 mm | - | - | - |
| 1778142277 | 15.56° C | 68% | 1014.9 hPa | 0 mm | - | - | - |
| 1778141917 | 17.22° C | 68% | 1015 hPa | 0 mm | - | - | - |
| 1778141557 | 16.67° C | 70% | 1015.1 hPa | 0 mm | - | - | - |
| 1778141197 | 15° C | 77% | 1015 hPa | 0 mm | - | - | - |
| 1778140837 | 15° C | 76% | 1015 hPa | 0 mm | - | - | - |
| 1778140477 | 15° C | 73% | 1015.1 hPa | 0 mm | - | - | - |
| 1778140117 | 16.11° C | 73% | 1015 hPa | 0 mm | - | - | - |
| 1778139757 | 15.56° C | 72% | 1015.1 hPa | 0 mm | - | - | - |
| 1778139397 | 15.56° C | 74% | 1015.1 hPa | 0 mm | - | - | - |
| 1778139037 | 13.89° C | 82% | 1015.1 hPa | 0 mm | - | - | - |
| 1778138677 | 13.33° C | 82% | 1015.1 hPa | 0 mm | - | - | - |
| 1778138317 | 13.33° C | 83% | 1015.1 hPa | 0 mm | - | - | - |
| 1778137957 | 12.78° C | 85% | 1015.1 hPa | 0 mm | - | - | - |
* Rain latest 24 hours (hover to see other rain measurements)
** Current wind speed in m/s (hover to see current wind gust speed)